sensor_id;sensor_type;location;lat;lon;timestamp;P1;durP1;ratioP1;P2;durP2;ratioP2
72198;SDS011;72266;51.056;16.880;2023-09-19T00:01:10;6.50;;;1.50;;
72198;SDS011;72266;51.056;16.880;2023-09-19T00:03:41;5.40;;;1.40;;
72198;SDS011;72266;51.056;16.880;2023-09-19T00:06:11;6.30;;;1.30;;
72198;SDS011;72266;51.056;16.880;2023-09-19T00:08:43;6.60;;;1.40;;
72198;SDS011;72266;51.056;16.880;2023-09-19T00:11:13;5.40;;;1.10;;
72198;SDS011;72266;51.056;16.880;2023-09-19T00:13:42;5.30;;;1.30;;
72198;SDS011;72266;51.056;16.880;2023-09-19T00:16:12;8.00;;;1.30;;
72198;SDS011;72266;51.056;16.880;2023-09-19T00:18:43;7.40;;;1.50;;
72198;SDS011;72266;51.056;16.880;2023-09-19T00:21:12;5.70;;;1.10;;
72198;SDS011;72266;51.056;16.880;2023-09-19T00:23:43;7.80;;;1.30;;
72198;SDS011;72266;51.056;16.880;2023-09-19T00:26:12;6.80;;;1.10;;
72198;SDS011;72266;51.056;16.880;2023-09-19T00:28:42;5.50;;;1.30;;
72198;SDS011;72266;51.056;16.880;2023-09-19T00:31:12;6.20;;;1.40;;
72198;SDS011;72266;51.056;16.880;2023-09-19T00:33:42;5.20;;;1.10;;
72198;SDS011;72266;51.056;16.880;2023-09-19T00:36:11;8.20;;;1.30;;
72198;SDS011;72266;51.056;16.880;2023-09-19T00:38:41;6.50;;;1.30;;
72198;SDS011;72266;51.056;16.880;2023-09-19T00:41:12;5.90;;;1.50;;
72198;SDS011;72266;51.056;16.880;2023-09-19T00:43:41;6.30;;;1.20;;
72198;SDS011;72266;51.056;16.880;2023-09-19T00:46:11;7.60;;;1.20;;
72198;SDS011;72266;51.056;16.880;2023-09-19T00:48:41;6.90;;;1.50;;
72198;SDS011;72266;51.056;16.880;2023-09-19T00:51:12;6.30;;;1.20;;
72198;SDS011;72266;51.056;16.880;2023-09-19T00:53:45;5.00;;;1.30;;
72198;SDS011;72266;51.056;16.880;2023-09-19T00:56:15;8.00;;;1.30;;
72198;SDS011;72266;51.056;16.880;2023-09-19T00:58:46;7.80;;;1.20;;
72198;SDS011;72266;51.056;16.880;2023-09-19T01:01:15;6.50;;;1.50;;
72198;SDS011;72266;51.056;16.880;2023-09-19T01:03:45;4.60;;;1.10;;
72198;SDS011;72266;51.056;16.880;2023-09-19T01:06:15;4.80;;;1.20;;
72198;SDS011;72266;51.056;16.880;2023-09-19T01:08:45;6.00;;;1.20;;
72198;SDS011;72266;51.056;16.880;2023-09-19T01:11:17;6.80;;;1.30;;
72198;SDS011;72266;51.056;16.880;2023-09-19T01:13:54;8.70;;;1.50;;
72198;SDS011;72266;51.056;16.880;2023-09-19T01:16:31;6.80;;;1.60;;
72198;SDS011;72266;51.056;16.880;2023-09-19T01:19:07;6.80;;;1.80;;
72198;SDS011;72266;51.056;16.880;2023-09-19T01:21:54;5.60;;;1.30;;
72198;SDS011;72266;51.056;16.880;2023-09-19T01:24:33;6.40;;;1.50;;
72198;SDS011;72266;51.056;16.880;2023-09-19T01:27:29;7.20;;;1.60;;
72198;SDS011;72266;51.056;16.880;2023-09-19T01:30:13;6.90;;;1.40;;
72198;SDS011;72266;51.056;16.880;2023-09-19T01:32:45;7.70;;;1.70;;
72198;SDS011;72266;51.056;16.880;2023-09-19T01:35:15;6.70;;;1.70;;
72198;SDS011;72266;51.056;16.880;2023-09-19T01:37:46;6.40;;;1.80;;
72198;SDS011;72266;51.056;16.880;2023-09-19T01:40:16;8.70;;;2.10;;
72198;SDS011;72266;51.056;16.880;2023-09-19T01:42:50;6.50;;;1.40;;
72198;SDS011;72266;51.056;16.880;2023-09-19T01:45:26;9.40;;;1.90;;
72198;SDS011;72266;51.056;16.880;2023-09-19T01:48:01;9.10;;;1.90;;
72198;SDS011;72266;51.056;16.880;2023-09-19T01:50:38;7.20;;;1.50;;
72198;SDS011;72266;51.056;16.880;2023-09-19T01:53:14;7.00;;;1.80;;
72198;SDS011;72266;51.056;16.880;2023-09-19T01:55:48;7.60;;;1.70;;
72198;SDS011;72266;51.056;16.880;2023-09-19T01:58:21;7.50;;;1.60;;
72198;SDS011;72266;51.056;16.880;2023-09-19T02:00:54;8.10;;;1.60;;
72198;SDS011;72266;51.056;16.880;2023-09-19T02:03:24;6.00;;;1.80;;
72198;SDS011;72266;51.056;16.880;2023-09-19T02:05:55;7.50;;;1.70;;
72198;SDS011;72266;51.056;16.880;2023-09-19T02:08:24;7.20;;;1.50;;
72198;SDS011;72266;51.056;16.880;2023-09-19T02:10:55;8.90;;;2.20;;
72198;SDS011;72266;51.056;16.880;2023-09-19T02:13:25;8.30;;;1.90;;
72198;SDS011;72266;51.056;16.880;2023-09-19T02:15:56;8.80;;;1.90;;
72198;SDS011;72266;51.056;16.880;2023-09-19T02:18:25;8.10;;;1.70;;
72198;SDS011;72266;51.056;16.880;2023-09-19T02:20:56;8.00;;;1.80;;
72198;SDS011;72266;51.056;16.880;2023-09-19T02:23:26;6.90;;;1.80;;
72198;SDS011;72266;51.056;16.880;2023-09-19T02:25:57;7.70;;;1.90;;
72198;SDS011;72266;51.056;16.880;2023-09-19T02:28:28;8.60;;;1.80;;
72198;SDS011;72266;51.056;16.880;2023-09-19T02:30:59;7.90;;;1.80;;
72198;SDS011;72266;51.056;16.880;2023-09-19T02:33:29;7.40;;;1.70;;
72198;SDS011;72266;51.056;16.880;2023-09-19T02:36:00;7.30;;;1.80;;
72198;SDS011;72266;51.056;16.880;2023-09-19T02:38:31;8.80;;;1.70;;
72198;SDS011;72266;51.056;16.880;2023-09-19T02:41:01;6.60;;;1.90;;
72198;SDS011;72266;51.056;16.880;2023-09-19T02:43:31;8.50;;;2.60;;
72198;SDS011;72266;51.056;16.880;2023-09-19T02:46:01;7.60;;;2.30;;
72198;SDS011;72266;51.056;16.880;2023-09-19T02:48:31;7.20;;;1.80;;
72198;SDS011;72266;51.056;16.880;2023-09-19T02:51:02;9.30;;;2.10;;
72198;SDS011;72266;51.056;16.880;2023-09-19T02:53:32;8.50;;;2.00;;
72198;SDS011;72266;51.056;16.880;2023-09-19T02:56:03;8.00;;;2.10;;
72198;SDS011;72266;51.056;16.880;2023-09-19T02:58:33;8.40;;;1.90;;
72198;SDS011;72266;51.056;16.880;2023-09-19T03:01:08;7.70;;;2.10;;
72198;SDS011;72266;51.056;16.880;2023-09-19T03:03:40;6.90;;;1.70;;
72198;SDS011;72266;51.056;16.880;2023-09-19T03:06:10;7.60;;;1.70;;
72198;SDS011;72266;51.056;16.880;2023-09-19T03:08:41;7.60;;;2.30;;
72198;SDS011;72266;51.056;16.880;2023-09-19T03:11:11;8.60;;;1.90;;
72198;SDS011;72266;51.056;16.880;2023-09-19T03:13:44;10.00;;;2.20;;
72198;SDS011;72266;51.056;16.880;2023-09-19T03:16:15;7.60;;;2.00;;
72198;SDS011;72266;51.056;16.880;2023-09-19T03:18:45;7.00;;;1.90;;
72198;SDS011;72266;51.056;16.880;2023-09-19T03:21:16;7.00;;;2.00;;
72198;SDS011;72266;51.056;16.880;2023-09-19T03:23:47;8.30;;;2.10;;
72198;SDS011;72266;51.056;16.880;2023-09-19T03:26:16;7.30;;;2.10;;
72198;SDS011;72266;51.056;16.880;2023-09-19T03:28:48;9.20;;;2.50;;
72198;SDS011;72266;51.056;16.880;2023-09-19T03:31:18;8.60;;;2.40;;
72198;SDS011;72266;51.056;16.880;2023-09-19T03:33:48;8.50;;;2.30;;
72198;SDS011;72266;51.056;16.880;2023-09-19T03:36:18;8.10;;;2.10;;
72198;SDS011;72266;51.056;16.880;2023-09-19T03:38:48;8.30;;;2.60;;
72198;SDS011;72266;51.056;16.880;2023-09-19T03:41:17;8.30;;;2.40;;
72198;SDS011;72266;51.056;16.880;2023-09-19T03:43:48;7.60;;;2.10;;
72198;SDS011;72266;51.056;16.880;2023-09-19T03:46:18;8.20;;;2.20;;
72198;SDS011;72266;51.056;16.880;2023-09-19T03:48:49;6.80;;;1.70;;
72198;SDS011;72266;51.056;16.880;2023-09-19T03:51:20;7.30;;;1.90;;
72198;SDS011;72266;51.056;16.880;2023-09-19T03:53:49;7.20;;;2.30;;
72198;SDS011;72266;51.056;16.880;2023-09-19T03:56:19;7.60;;;2.00;;
72198;SDS011;72266;51.056;16.880;2023-09-19T03:58:49;6.70;;;1.90;;
72198;SDS011;72266;51.056;16.880;2023-09-19T04:01:19;8.60;;;2.10;;
72198;SDS011;72266;51.056;16.880;2023-09-19T04:03:48;8.70;;;2.00;;
72198;SDS011;72266;51.056;16.880;2023-09-19T04:06:19;9.20;;;2.30;;
72198;SDS011;72266;51.056;16.880;2023-09-19T04:08:49;6.70;;;1.80;;
72198;SDS011;72266;51.056;16.880;2023-09-19T04:11:19;8.20;;;2.20;;
72198;SDS011;72266;51.056;16.880;2023-09-19T04:13:49;7.90;;;2.00;;
72198;SDS011;72266;51.056;16.880;2023-09-19T04:16:19;8.30;;;2.10;;
72198;SDS011;72266;51.056;16.880;2023-09-19T04:18:49;9.00;;;2.00;;
72198;SDS011;72266;51.056;16.880;2023-09-19T04:21:19;8.00;;;1.80;;
72198;SDS011;72266;51.056;16.880;2023-09-19T04:23:49;11.60;;;2.20;;
72198;SDS011;72266;51.056;16.880;2023-09-19T04:26:19;11.50;;;2.10;;
72198;SDS011;72266;51.056;16.880;2023-09-19T04:28:49;7.70;;;2.10;;
72198;SDS011;72266;51.056;16.880;2023-09-19T04:31:19;8.60;;;2.10;;
72198;SDS011;72266;51.056;16.880;2023-09-19T04:33:50;10.40;;;2.40;;
72198;SDS011;72266;51.056;16.880;2023-09-19T04:36:19;8.40;;;2.20;;
72198;SDS011;72266;51.056;16.880;2023-09-19T04:39:03;7.50;;;1.90;;
72198;SDS011;72266;51.056;16.880;2023-09-19T04:41:33;7.90;;;2.10;;
72198;SDS011;72266;51.056;16.880;2023-09-19T04:44:06;7.70;;;2.20;;
72198;SDS011;72266;51.056;16.880;2023-09-19T04:46:36;7.70;;;1.90;;
72198;SDS011;72266;51.056;16.880;2023-09-19T04:49:06;9.10;;;2.10;;
72198;SDS011;72266;51.056;16.880;2023-09-19T04:51:36;9.10;;;2.50;;
72198;SDS011;72266;51.056;16.880;2023-09-19T04:54:06;9.80;;;2.60;;
72198;SDS011;72266;51.056;16.880;2023-09-19T04:56:36;8.50;;;2.30;;
72198;SDS011;72266;51.056;16.880;2023-09-19T04:59:08;8.20;;;2.30;;
72198;SDS011;72266;51.056;16.880;2023-09-19T05:01:39;9.50;;;2.00;;
72198;SDS011;72266;51.056;16.880;2023-09-19T05:04:09;9.00;;;2.50;;
72198;SDS011;72266;51.056;16.880;2023-09-19T05:06:39;7.40;;;2.40;;
72198;SDS011;72266;51.056;16.880;2023-09-19T05:09:11;7.60;;;2.30;;
72198;SDS011;72266;51.056;16.880;2023-09-19T05:11:41;9.00;;;2.50;;
72198;SDS011;72266;51.056;16.880;2023-09-19T05:14:11;8.20;;;2.70;;
72198;SDS011;72266;51.056;16.880;2023-09-19T05:16:41;8.40;;;2.40;;
72198;SDS011;72266;51.056;16.880;2023-09-19T05:19:11;10.00;;;3.00;;
72198;SDS011;72266;51.056;16.880;2023-09-19T05:21:41;8.30;;;2.70;;
72198;SDS011;72266;51.056;16.880;2023-09-19T05:24:11;10.20;;;2.80;;
72198;SDS011;72266;51.056;16.880;2023-09-19T05:26:42;10.80;;;2.60;;
72198;SDS011;72266;51.056;16.880;2023-09-19T05:29:13;9.80;;;2.10;;
72198;SDS011;72266;51.056;16.880;2023-09-19T05:31:43;8.30;;;2.20;;
72198;SDS011;72266;51.056;16.880;2023-09-19T05:34:13;7.90;;;2.10;;
72198;SDS011;72266;51.056;16.880;2023-09-19T05:36:43;9.60;;;2.20;;
72198;SDS011;72266;51.056;16.880;2023-09-19T05:39:13;8.10;;;2.10;;
72198;SDS011;72266;51.056;16.880;2023-09-19T05:41:42;8.20;;;2.10;;
72198;SDS011;72266;51.056;16.880;2023-09-19T05:44:13;8.70;;;2.30;;
72198;SDS011;72266;51.056;16.880;2023-09-19T05:46:42;9.10;;;2.50;;
72198;SDS011;72266;51.056;16.880;2023-09-19T05:49:13;8.20;;;2.40;;
72198;SDS011;72266;51.056;16.880;2023-09-19T05:51:44;7.50;;;2.70;;
72198;SDS011;72266;51.056;16.880;2023-09-19T05:54:15;8.60;;;2.60;;
72198;SDS011;72266;51.056;16.880;2023-09-19T05:56:46;9.20;;;2.50;;
72198;SDS011;72266;51.056;16.880;2023-09-19T05:59:16;11.10;;;2.80;;
72198;SDS011;72266;51.056;16.880;2023-09-19T06:01:46;9.00;;;2.70;;
72198;SDS011;72266;51.056;16.880;2023-09-19T06:04:16;8.40;;;2.90;;
72198;SDS011;72266;51.056;16.880;2023-09-19T06:06:47;8.20;;;2.70;;
72198;SDS011;72266;51.056;16.880;2023-09-19T06:09:16;7.50;;;2.40;;
72198;SDS011;72266;51.056;16.880;2023-09-19T06:11:50;8.90;;;2.20;;
72198;SDS011;72266;51.056;16.880;2023-09-19T06:14:20;8.10;;;2.50;;
72198;SDS011;72266;51.056;16.880;2023-09-19T06:16:52;7.60;;;2.40;;
72198;SDS011;72266;51.056;16.880;2023-09-19T06:19:22;9.00;;;2.50;;
72198;SDS011;72266;51.056;16.880;2023-09-19T06:21:53;7.00;;;2.10;;
72198;SDS011;72266;51.056;16.880;2023-09-19T06:24:23;8.60;;;2.50;;
72198;SDS011;72266;51.056;16.880;2023-09-19T06:26:53;8.40;;;2.40;;
72198;SDS011;72266;51.056;16.880;2023-09-19T06:29:23;7.70;;;2.40;;
72198;SDS011;72266;51.056;16.880;2023-09-19T06:31:53;8.80;;;2.50;;
72198;SDS011;72266;51.056;16.880;2023-09-19T06:34:23;9.00;;;2.20;;
72198;SDS011;72266;51.056;16.880;2023-09-19T06:36:53;7.70;;;2.10;;
72198;SDS011;72266;51.056;16.880;2023-09-19T06:39:23;6.50;;;2.30;;
72198;SDS011;72266;51.056;16.880;2023-09-19T06:41:53;9.10;;;2.60;;
72198;SDS011;72266;51.056;16.880;2023-09-19T06:44:23;9.00;;;2.20;;
72198;SDS011;72266;51.056;16.880;2023-09-19T06:46:53;9.20;;;1.90;;
72198;SDS011;72266;51.056;16.880;2023-09-19T06:49:23;11.20;;;2.40;;
72198;SDS011;72266;51.056;16.880;2023-09-19T06:51:54;7.90;;;1.90;;
72198;SDS011;72266;51.056;16.880;2023-09-19T06:54:25;7.40;;;1.80;;
72198;SDS011;72266;51.056;16.880;2023-09-19T06:56:58;7.60;;;2.00;;
72198;SDS011;72266;51.056;16.880;2023-09-19T06:59:28;10.10;;;2.00;;
72198;SDS011;72266;51.056;16.880;2023-09-19T07:02:00;6.80;;;2.00;;
72198;SDS011;72266;51.056;16.880;2023-09-19T07:04:30;7.40;;;2.10;;
72198;SDS011;72266;51.056;16.880;2023-09-19T07:07:00;6.80;;;2.20;;
72198;SDS011;72266;51.056;16.880;2023-09-19T07:09:30;8.90;;;2.10;;
72198;SDS011;72266;51.056;16.880;2023-09-19T07:12:00;7.90;;;1.70;;
72198;SDS011;72266;51.056;16.880;2023-09-19T07:14:33;8.40;;;1.80;;
72198;SDS011;72266;51.056;16.880;2023-09-19T07:17:03;6.60;;;2.30;;
72198;SDS011;72266;51.056;16.880;2023-09-19T07:19:33;6.40;;;1.70;;
72198;SDS011;72266;51.056;16.880;2023-09-19T07:22:03;6.30;;;1.90;;
72198;SDS011;72266;51.056;16.880;2023-09-19T07:24:33;7.60;;;1.40;;
72198;SDS011;72266;51.056;16.880;2023-09-19T07:27:04;6.20;;;1.60;;
72198;SDS011;72266;51.056;16.880;2023-09-19T07:29:34;8.40;;;1.70;;
72198;SDS011;72266;51.056;16.880;2023-09-19T07:32:05;7.20;;;1.80;;
72198;SDS011;72266;51.056;16.880;2023-09-19T07:34:38;7.10;;;2.00;;
72198;SDS011;72266;51.056;16.880;2023-09-19T07:37:08;6.70;;;1.80;;
72198;SDS011;72266;51.056;16.880;2023-09-19T07:39:39;6.60;;;1.70;;
72198;SDS011;72266;51.056;16.880;2023-09-19T07:42:09;6.00;;;1.50;;
72198;SDS011;72266;51.056;16.880;2023-09-19T07:44:39;6.10;;;1.60;;
72198;SDS011;72266;51.056;16.880;2023-09-19T07:47:09;6.40;;;1.60;;
72198;SDS011;72266;51.056;16.880;2023-09-19T07:49:38;6.00;;;1.70;;
72198;SDS011;72266;51.056;16.880;2023-09-19T07:52:08;4.60;;;1.40;;
72198;SDS011;72266;51.056;16.880;2023-09-19T07:54:40;5.40;;;1.30;;
72198;SDS011;72266;51.056;16.880;2023-09-19T07:57:12;5.70;;;1.50;;
72198;SDS011;72266;51.056;16.880;2023-09-19T07:59:42;6.50;;;1.90;;
72198;SDS011;72266;51.056;16.880;2023-09-19T08:02:13;5.60;;;1.80;;
72198;SDS011;72266;51.056;16.880;2023-09-19T08:04:44;6.60;;;1.80;;
72198;SDS011;72266;51.056;16.880;2023-09-19T08:07:14;5.00;;;1.50;;
72198;SDS011;72266;51.056;16.880;2023-09-19T08:09:44;4.70;;;1.20;;
72198;SDS011;72266;51.056;16.880;2023-09-19T08:12:16;5.70;;;1.80;;
72198;SDS011;72266;51.056;16.880;2023-09-19T08:14:52;5.60;;;1.70;;
72198;SDS011;72266;51.056;16.880;2023-09-19T08:17:23;5.20;;;1.50;;
72198;SDS011;72266;51.056;16.880;2023-09-19T08:19:53;5.20;;;1.30;;
72198;SDS011;72266;51.056;16.880;2023-09-19T08:22:23;6.30;;;1.60;;
72198;SDS011;72266;51.056;16.880;2023-09-19T08:24:52;4.50;;;1.20;;
72198;SDS011;72266;51.056;16.880;2023-09-19T08:27:24;5.10;;;1.50;;
72198;SDS011;72266;51.056;16.880;2023-09-19T08:29:55;5.90;;;1.70;;
72198;SDS011;72266;51.056;16.880;2023-09-19T08:32:24;7.10;;;1.90;;
72198;SDS011;72266;51.056;16.880;2023-09-19T08:34:55;6.30;;;1.90;;
72198;SDS011;72266;51.056;16.880;2023-09-19T08:37:25;5.10;;;1.70;;
72198;SDS011;72266;51.056;16.880;2023-09-19T08:39:55;6.70;;;1.70;;
72198;SDS011;72266;51.056;16.880;2023-09-19T08:42:25;6.30;;;1.70;;
72198;SDS011;72266;51.056;16.880;2023-09-19T08:44:56;6.10;;;1.80;;
72198;SDS011;72266;51.056;16.880;2023-09-19T08:47:30;6.70;;;1.50;;
72198;SDS011;72266;51.056;16.880;2023-09-19T08:50:08;6.60;;;1.10;;
72198;SDS011;72266;51.056;16.880;2023-09-19T08:52:43;6.40;;;1.40;;
72198;SDS011;72266;51.056;16.880;2023-09-19T08:55:13;5.60;;;1.40;;
72198;SDS011;72266;51.056;16.880;2023-09-19T08:57:49;5.00;;;1.60;;
72198;SDS011;72266;51.056;16.880;2023-09-19T09:00:19;5.70;;;1.60;;
72198;SDS011;72266;51.056;16.880;2023-09-19T09:02:50;6.00;;;1.80;;
72198;SDS011;72266;51.056;16.880;2023-09-19T09:05:22;5.40;;;1.20;;
72198;SDS011;72266;51.056;16.880;2023-09-19T09:07:54;5.20;;;1.70;;
72198;SDS011;72266;51.056;16.880;2023-09-19T09:10:24;6.70;;;1.50;;
72198;SDS011;72266;51.056;16.880;2023-09-19T09:12:54;7.40;;;1.80;;
72198;SDS011;72266;51.056;16.880;2023-09-19T09:15:25;5.70;;;1.90;;
72198;SDS011;72266;51.056;16.880;2023-09-19T09:17:57;4.80;;;1.40;;
72198;SDS011;72266;51.056;16.880;2023-09-19T09:20:27;5.40;;;1.40;;
72198;SDS011;72266;51.056;16.880;2023-09-19T09:22:57;5.20;;;1.70;;
72198;SDS011;72266;51.056;16.880;2023-09-19T09:28:25;5.10;;;1.40;;
72198;SDS011;72266;51.056;16.880;2023-09-19T09:30:56;5.60;;;1.60;;
72198;SDS011;72266;51.056;16.880;2023-09-19T09:33:26;5.90;;;1.90;;
72198;SDS011;72266;51.056;16.880;2023-09-19T09:35:57;6.60;;;1.90;;
72198;SDS011;72266;51.056;16.880;2023-09-19T09:38:29;7.70;;;1.80;;
72198;SDS011;72266;51.056;16.880;2023-09-19T09:41:11;6.20;;;1.40;;
72198;SDS011;72266;51.056;16.880;2023-09-19T09:43:44;5.10;;;1.50;;
72198;SDS011;72266;51.056;16.880;2023-09-19T09:46:17;5.20;;;1.30;;
72198;SDS011;72266;51.056;16.880;2023-09-19T09:49:06;5.30;;;1.30;;
72198;SDS011;72266;51.056;16.880;2023-09-19T09:51:49;6.20;;;1.50;;
72198;SDS011;72266;51.056;16.880;2023-09-19T09:54:29;6.40;;;1.40;;
72198;SDS011;72266;51.056;16.880;2023-09-19T09:57:02;6.30;;;2.00;;
72198;SDS011;72266;51.056;16.880;2023-09-19T09:59:45;8.50;;;1.50;;
72198;SDS011;72266;51.056;16.880;2023-09-19T10:02:21;5.80;;;1.50;;
72198;SDS011;72266;51.056;16.880;2023-09-19T10:04:57;4.60;;;1.30;;
72198;SDS011;72266;51.056;16.880;2023-09-19T10:07:35;6.60;;;1.50;;
72198;SDS011;72266;51.056;16.880;2023-09-19T10:10:12;5.30;;;1.50;;
72198;SDS011;72266;51.056;16.880;2023-09-19T10:12:44;5.30;;;1.50;;
72198;SDS011;72266;51.056;16.880;2023-09-19T10:15:16;6.00;;;1.20;;
72198;SDS011;72266;51.056;16.880;2023-09-19T10:17:48;5.70;;;1.40;;
72198;SDS011;72266;51.056;16.880;2023-09-19T10:20:26;4.70;;;1.40;;
72198;SDS011;72266;51.056;16.880;2023-09-19T10:23:06;6.00;;;1.40;;
72198;SDS011;72266;51.056;16.880;2023-09-19T10:25:38;6.10;;;1.60;;
72198;SDS011;72266;51.056;16.880;2023-09-19T10:28:09;5.50;;;1.30;;
72198;SDS011;72266;51.056;16.880;2023-09-19T10:30:44;6.60;;;1.60;;
72198;SDS011;72266;51.056;16.880;2023-09-19T10:33:18;6.10;;;1.30;;
72198;SDS011;72266;51.056;16.880;2023-09-19T10:35:50;5.80;;;1.40;;
72198;SDS011;72266;51.056;16.880;2023-09-19T10:38:22;4.90;;;1.70;;
72198;SDS011;72266;51.056;16.880;2023-09-19T10:40:53;7.30;;;1.60;;
72198;SDS011;72266;51.056;16.880;2023-09-19T10:43:29;6.60;;;1.60;;
72198;SDS011;72266;51.056;16.880;2023-09-19T10:46:06;6.70;;;1.30;;
72198;SDS011;72266;51.056;16.880;2023-09-19T10:48:38;5.40;;;1.40;;
72198;SDS011;72266;51.056;16.880;2023-09-19T10:51:12;4.50;;;1.30;;
72198;SDS011;72266;51.056;16.880;2023-09-19T10:53:47;5.50;;;1.40;;
72198;SDS011;72266;51.056;16.880;2023-09-19T10:56:20;8.70;;;1.80;;
72198;SDS011;72266;51.056;16.880;2023-09-19T10:59:07;6.20;;;1.40;;
72198;SDS011;72266;51.056;16.880;2023-09-19T11:01:46;4.90;;;1.30;;
72198;SDS011;72266;51.056;16.880;2023-09-19T11:04:22;6.80;;;2.30;;
72198;SDS011;72266;51.056;16.880;2023-09-19T11:07:03;6.40;;;1.90;;
72198;SDS011;72266;51.056;16.880;2023-09-19T11:09:45;6.10;;;1.60;;
72198;SDS011;72266;51.056;16.880;2023-09-19T11:21:42;5.40;;;1.50;;
72198;SDS011;72266;51.056;16.880;2023-09-19T11:24:32;4.20;;;1.20;;
72198;SDS011;72266;51.056;16.880;2023-09-19T11:27:10;5.00;;;1.30;;
72198;SDS011;72266;51.056;16.880;2023-09-19T11:29:45;6.20;;;1.20;;
72198;SDS011;72266;51.056;16.880;2023-09-19T11:32:16;4.80;;;1.10;;
72198;SDS011;72266;51.056;16.880;2023-09-19T11:34:47;5.50;;;1.20;;
72198;SDS011;72266;51.056;16.880;2023-09-19T11:40:46;5.10;;;1.10;;
72198;SDS011;72266;51.056;16.880;2023-09-19T11:43:29;4.20;;;0.90;;
72198;SDS011;72266;51.056;16.880;2023-09-19T11:46:03;4.50;;;1.00;;
72198;SDS011;72266;51.056;16.880;2023-09-19T11:48:33;6.90;;;1.10;;
72198;SDS011;72266;51.056;16.880;2023-09-19T11:51:12;4.00;;;0.90;;
72198;SDS011;72266;51.056;16.880;2023-09-19T11:53:51;6.00;;;1.30;;
72198;SDS011;72266;51.056;16.880;2023-09-19T11:56:22;4.90;;;1.10;;
72198;SDS011;72266;51.056;16.880;2023-09-19T11:58:55;6.40;;;0.90;;
72198;SDS011;72266;51.056;16.880;2023-09-19T12:01:29;3.50;;;0.80;;
72198;SDS011;72266;51.056;16.880;2023-09-19T12:04:01;3.50;;;1.00;;
72198;SDS011;72266;51.056;16.880;2023-09-19T12:06:32;6.90;;;1.30;;
72198;SDS011;72266;51.056;16.880;2023-09-19T12:09:02;4.90;;;1.10;;
72198;SDS011;72266;51.056;16.880;2023-09-19T12:11:40;5.60;;;1.20;;
72198;SDS011;72266;51.056;16.880;2023-09-19T12:14:12;4.20;;;0.80;;
72198;SDS011;72266;51.056;16.880;2023-09-19T12:16:54;4.50;;;0.90;;
72198;SDS011;72266;51.056;16.880;2023-09-19T12:19:24;4.10;;;0.90;;
72198;SDS011;72266;51.056;16.880;2023-09-19T12:21:55;5.30;;;0.90;;
72198;SDS011;72266;51.056;16.880;2023-09-19T12:24:32;4.00;;;1.10;;
72198;SDS011;72266;51.056;16.880;2023-09-19T12:27:06;7.60;;;1.40;;
72198;SDS011;72266;51.056;16.880;2023-09-19T12:29:44;5.80;;;1.20;;
72198;SDS011;72266;51.056;16.880;2023-09-19T12:32:16;4.10;;;0.90;;
72198;SDS011;72266;51.056;16.880;2023-09-19T12:34:52;5.70;;;1.20;;
72198;SDS011;72266;51.056;16.880;2023-09-19T12:37:23;4.20;;;1.30;;
72198;SDS011;72266;51.056;16.880;2023-09-19T12:40:04;4.50;;;1.10;;
72198;SDS011;72266;51.056;16.880;2023-09-19T12:42:45;5.00;;;1.20;;
72198;SDS011;72266;51.056;16.880;2023-09-19T12:45:15;4.20;;;1.10;;
72198;SDS011;72266;51.056;16.880;2023-09-19T12:51:00;5.10;;;1.30;;
72198;SDS011;72266;51.056;16.880;2023-09-19T12:53:35;5.10;;;1.10;;
72198;SDS011;72266;51.056;16.880;2023-09-19T12:56:09;4.70;;;1.00;;
72198;SDS011;72266;51.056;16.880;2023-09-19T12:58:50;4.40;;;0.90;;
72198;SDS011;72266;51.056;16.880;2023-09-19T13:01:22;5.20;;;1.10;;
72198;SDS011;72266;51.056;16.880;2023-09-19T13:04:14;5.60;;;1.30;;
72198;SDS011;72266;51.056;16.880;2023-09-19T13:06:50;4.60;;;1.00;;
72198;SDS011;72266;51.056;16.880;2023-09-19T13:09:20;5.30;;;1.20;;
72198;SDS011;72266;51.056;16.880;2023-09-19T13:11:56;5.70;;;1.40;;
72198;SDS011;72266;51.056;16.880;2023-09-19T13:14:27;5.30;;;1.20;;
72198;SDS011;72266;51.056;16.880;2023-09-19T13:17:00;4.70;;;1.30;;
72198;SDS011;72266;51.056;16.880;2023-09-19T13:19:39;4.20;;;1.10;;
72198;SDS011;72266;51.056;16.880;2023-09-19T13:25:12;4.20;;;0.80;;
72198;SDS011;72266;51.056;16.880;2023-09-19T13:27:43;3.90;;;0.90;;
72198;SDS011;72266;51.056;16.880;2023-09-19T13:30:18;7.00;;;1.00;;
72198;SDS011;72266;51.056;16.880;2023-09-19T13:33:03;4.30;;;1.00;;
72198;SDS011;72266;51.056;16.880;2023-09-19T13:35:44;3.70;;;0.80;;
72198;SDS011;72266;51.056;16.880;2023-09-19T13:38:21;4.40;;;1.00;;
72198;SDS011;72266;51.056;16.880;2023-09-19T13:40:51;7.00;;;1.10;;
72198;SDS011;72266;51.056;16.880;2023-09-19T13:43:21;5.50;;;1.10;;
72198;SDS011;72266;51.056;16.880;2023-09-19T13:45:52;4.60;;;1.20;;
72198;SDS011;72266;51.056;16.880;2023-09-19T13:48:24;5.40;;;1.10;;
72198;SDS011;72266;51.056;16.880;2023-09-19T13:50:54;6.00;;;1.30;;
72198;SDS011;72266;51.056;16.880;2023-09-19T13:53:24;3.80;;;1.10;;
72198;SDS011;72266;51.056;16.880;2023-09-19T13:55:55;4.20;;;1.30;;
72198;SDS011;72266;51.056;16.880;2023-09-19T13:58:26;3.80;;;1.00;;
72198;SDS011;72266;51.056;16.880;2023-09-19T14:00:57;4.60;;;0.90;;
72198;SDS011;72266;51.056;16.880;2023-09-19T14:03:28;4.90;;;0.90;;
72198;SDS011;72266;51.056;16.880;2023-09-19T14:05:59;5.80;;;1.50;;
72198;SDS011;72266;51.056;16.880;2023-09-19T14:08:29;3.90;;;0.90;;
72198;SDS011;72266;51.056;16.880;2023-09-19T14:11:06;4.40;;;1.10;;
72198;SDS011;72266;51.056;16.880;2023-09-19T14:13:36;4.70;;;1.20;;
72198;SDS011;72266;51.056;16.880;2023-09-19T14:16:06;4.80;;;1.00;;
72198;SDS011;72266;51.056;16.880;2023-09-19T14:18:37;4.40;;;0.90;;
72198;SDS011;72266;51.056;16.880;2023-09-19T14:21:07;4.60;;;1.10;;
72198;SDS011;72266;51.056;16.880;2023-09-19T14:23:39;4.30;;;1.20;;
72198;SDS011;72266;51.056;16.880;2023-09-19T14:26:11;4.30;;;0.80;;
72198;SDS011;72266;51.056;16.880;2023-09-19T14:28:41;4.40;;;0.90;;
72198;SDS011;72266;51.056;16.880;2023-09-19T14:31:12;3.70;;;0.90;;
72198;SDS011;72266;51.056;16.880;2023-09-19T14:33:42;5.10;;;1.30;;
72198;SDS011;72266;51.056;16.880;2023-09-19T14:36:12;4.90;;;1.20;;
72198;SDS011;72266;51.056;16.880;2023-09-19T14:38:42;4.10;;;1.10;;
72198;SDS011;72266;51.056;16.880;2023-09-19T14:41:12;4.30;;;1.10;;
72198;SDS011;72266;51.056;16.880;2023-09-19T14:43:42;4.80;;;1.20;;
72198;SDS011;72266;51.056;16.880;2023-09-19T14:46:12;5.60;;;1.30;;
72198;SDS011;72266;51.056;16.880;2023-09-19T14:48:42;4.50;;;1.10;;
72198;SDS011;72266;51.056;16.880;2023-09-19T14:51:13;6.00;;;1.10;;
72198;SDS011;72266;51.056;16.880;2023-09-19T14:53:43;4.80;;;0.90;;
72198;SDS011;72266;51.056;16.880;2023-09-19T14:56:14;4.00;;;1.10;;
72198;SDS011;72266;51.056;16.880;2023-09-19T14:58:47;7.70;;;1.40;;
72198;SDS011;72266;51.056;16.880;2023-09-19T15:01:23;5.40;;;1.40;;
72198;SDS011;72266;51.056;16.880;2023-09-19T15:03:54;5.00;;;1.30;;
72198;SDS011;72266;51.056;16.880;2023-09-19T15:06:24;4.60;;;1.10;;
72198;SDS011;72266;51.056;16.880;2023-09-19T15:08:55;5.90;;;0.90;;
72198;SDS011;72266;51.056;16.880;2023-09-19T15:11:25;4.90;;;1.30;;
72198;SDS011;72266;51.056;16.880;2023-09-19T15:13:56;3.90;;;1.00;;
72198;SDS011;72266;51.056;16.880;2023-09-19T15:16:27;4.90;;;1.00;;
72198;SDS011;72266;51.056;16.880;2023-09-19T15:18:58;4.80;;;1.10;;
72198;SDS011;72266;51.056;16.880;2023-09-19T15:21:29;4.10;;;1.00;;
72198;SDS011;72266;51.056;16.880;2023-09-19T15:24:01;4.60;;;1.30;;